createdAt,value
2022-08-07T00:01:44.470Z,99929.06
2022-08-07T00:03:53.090Z,99925.00
2022-08-07T00:06:29.569Z,99919.25
2022-08-07T00:09:16.109Z,99924.13
2022-08-07T00:11:53.988Z,99930.09
2022-08-07T00:14:25.411Z,99939.31
2022-08-07T00:16:52.555Z,99928.50
2022-08-07T00:19:21.428Z,99922.75
2022-08-07T00:21:55.946Z,99930.63
2022-08-07T00:24:24.397Z,99931.00
2022-08-07T00:26:58.836Z,99925.81
2022-08-07T00:29:33.315Z,99937.25
2022-08-07T00:32:03.725Z,99929.66
2022-08-07T00:34:32.603Z,99928.28
2022-08-07T00:37:02.363Z,99930.44
2022-08-07T00:39:33.504Z,99927.50
2022-08-07T00:42:02.064Z,99924.25
2022-08-07T00:44:33.312Z,99928.56
2022-08-07T00:47:01.587Z,99937.81
2022-08-07T00:50:20.737Z,99933.97
2022-08-07T00:52:17.688Z,99944.56
2022-08-07T00:54:53.661Z,99934.00
2022-08-07T00:57:25.758Z,99928.25
2022-08-07T00:59:53.993Z,99935.41
2022-08-07T01:02:28.786Z,99939.44
2022-08-07T01:04:58.804Z,99941.31
2022-08-07T01:07:29.295Z,99930.16
2022-08-07T01:10:06.897Z,99922.06
2022-08-07T01:12:53.397Z,99928.28
2022-08-07T01:16:01.226Z,99926.16
2022-08-07T01:18:10.967Z,99918.50
2022-08-07T01:20:59.248Z,99913.94
2022-08-07T01:23:35.446Z,99911.69
2022-08-07T01:26:08.422Z,99914.44
2022-08-07T01:28:46.171Z,99922.09
2022-08-07T01:31:19.701Z,99920.38
2022-08-07T01:33:55.995Z,99920.69
2022-08-07T01:36:33.549Z,99915.75
2022-08-07T01:39:04.136Z,99918.44
2022-08-07T01:41:40.664Z,99930.63
2022-08-07T01:44:24.482Z,99924.09
2022-08-07T01:46:51.916Z,99921.69
2022-08-07T01:49:18.608Z,99926.31
2022-08-07T01:52:03.522Z,99919.59
2022-08-07T01:54:37.794Z,99924.94
2022-08-07T01:57:20.730Z,99908.66
2022-08-07T02:00:13.462Z,99918.16
2022-08-07T02:03:19.160Z,99918.06
2022-08-07T02:05:59.501Z,99917.28
2022-08-07T02:08:29.895Z,99928.13
2022-08-07T02:10:59.518Z,99924.28
2022-08-07T02:13:57.684Z,99926.25
2022-08-07T02:16:19.682Z,99928.41
2022-08-07T02:18:48.045Z,99918.41
2022-08-07T02:21:16.483Z,99912.69
2022-08-07T02:23:44.904Z,99921.66
2022-08-07T02:26:33.037Z,99914.81
2022-08-07T02:29:00.194Z,99906.19
2022-08-07T02:31:29.334Z,99911.25
2022-08-07T02:34:04.142Z,99908.84
2022-08-07T02:36:44.195Z,99928.91
2022-08-07T02:39:17.087Z,99912.91
2022-08-07T02:42:10.128Z,99905.59
2022-08-07T02:44:42.251Z,99905.28
2022-08-07T02:47:19.221Z,99901.28
2022-08-07T02:49:57.665Z,99903.22
2022-08-07T02:52:32.683Z,99895.22
2022-08-07T02:55:04.388Z,99898.72
2022-08-07T02:57:34.915Z,99896.84
2022-08-07T03:00:11.194Z,99894.97
2022-08-07T03:02:54.092Z,99895.16
2022-08-07T03:05:23.229Z,99894.19
2022-08-07T03:08:07.463Z,99896.31
2022-08-07T03:10:46.533Z,99890.13
2022-08-07T03:13:19.604Z,99886.47
2022-08-07T03:15:56.716Z,99885.91
2022-08-07T03:18:34.593Z,99887.41
2022-08-07T03:21:08.412Z,99883.75
2022-08-07T03:24:17.820Z,99891.84
2022-08-07T03:26:29.041Z,99887.06
2022-08-07T03:28:57.327Z,99891.16
2022-08-07T03:31:43.589Z,99878.00
2022-08-07T03:34:18.860Z,99878.22
2022-08-07T03:36:52.954Z,99887.44
2022-08-07T03:39:59.655Z,99886.91
2022-08-07T03:42:08.513Z,99885.25
2022-08-07T03:44:36.799Z,99881.72
2022-08-07T03:47:13.165Z,99882.22
2022-08-07T03:49:52.149Z,99886.31
2022-08-07T03:52:28.049Z,99885.66
2022-08-07T03:55:06.148Z,99885.00
2022-08-07T03:58:32.978Z,99889.22
2022-08-07T04:00:29.042Z,99881.59
2022-08-07T04:02:56.961Z,99881.28
2022-08-07T04:05:40.077Z,99879.56
2022-08-07T04:08:13.177Z,99882.00
2022-08-07T04:10:43.487Z,99891.41
2022-08-07T04:13:22.442Z,99890.44
2022-08-07T04:15:54.669Z,99892.66
2022-08-07T04:18:56.589Z,99900.03
2022-08-07T04:21:08.209Z,99904.53
2022-08-07T04:23:43.962Z,99893.00
2022-08-07T04:26:25.161Z,99897.38
2022-08-07T04:28:56.541Z,99902.56
2022-08-07T04:31:39.071Z,99900.06
2022-08-07T04:34:16.824Z,99894.63
2022-08-07T04:36:45.478Z,99897.88
2022-08-07T04:39:17.817Z,99898.16
2022-08-07T04:41:50.177Z,99908.25
2022-08-07T04:44:19.047Z,99900.41
2022-08-07T04:47:03.982Z,99899.09
2022-08-07T04:49:47.602Z,99901.06
2022-08-07T04:52:51.281Z,99899.91
2022-08-07T04:58:24.122Z,99904.09
2022-08-07T04:59:09.229Z,99903.00
2022-08-07T05:01:50.520Z,99906.06
2022-08-07T05:04:55.813Z,99903.69
2022-08-07T05:07:48.498Z,99901.56
2022-08-07T05:10:24.962Z,99908.31
2022-08-07T05:13:09.984Z,99916.22
2022-08-07T05:15:50.021Z,99912.69
2022-08-07T05:18:24.302Z,99912.50
2022-08-07T05:20:55.226Z,99915.28
2022-08-07T05:23:36.721Z,99915.03
2022-08-07T05:26:13.148Z,99913.44
2022-08-07T05:28:50.305Z,99904.25
2022-08-07T05:31:23.916Z,99914.56
2022-08-07T05:34:04.658Z,99918.38
2022-08-07T05:36:38.961Z,99913.75
2022-08-07T05:40:17.573Z,99916.22
2022-08-07T05:42:05.303Z,99918.69
2022-08-07T05:44:37.790Z,99912.16
2022-08-07T05:47:18.841Z,99909.13
2022-08-07T05:49:49.547Z,99921.13
2022-08-07T05:52:20.024Z,99919.44
2022-08-07T05:54:55.833Z,99916.69
2022-08-07T05:57:30.176Z,99919.16
2022-08-07T06:00:01.890Z,99923.78
2022-08-07T06:02:40.204Z,99920.00
2022-08-07T06:05:15.709Z,99927.34
2022-08-07T06:08:14.537Z,99930.06
2022-08-07T06:10:36.601Z,99937.16
2022-08-07T06:13:05.262Z,99938.50
2022-08-07T06:15:42.291Z,99929.50
2022-08-07T06:18:13.754Z,99928.41
2022-08-07T06:20:50.916Z,99931.94
2022-08-07T06:24:37.325Z,99931.66
2022-08-07T06:26:19.830Z,99928.44
2022-08-07T06:28:50.135Z,99934.13
2022-08-07T06:31:20.647Z,99936.59
2022-08-07T06:33:51.670Z,99930.06
2022-08-07T06:36:34.744Z,99933.28
2022-08-07T06:40:13.019Z,99934.94
2022-08-07T06:42:01.666Z,99932.69
2022-08-07T06:44:50.859Z,99930.78
2022-08-07T06:47:19.476Z,99927.22
2022-08-07T06:49:51.949Z,99935.63
2022-08-07T06:52:32.095Z,99927.19
2022-08-07T06:55:34.051Z,99926.81
2022-08-07T06:57:59.170Z,99927.88
2022-08-07T07:00:32.869Z,99934.56
2022-08-07T07:03:10.712Z,99934.06
2022-08-07T07:06:04.394Z,99921.47
2022-08-07T07:08:27.410Z,99928.28
2022-08-07T07:10:56.846Z,99927.44
2022-08-07T07:13:56.155Z,99930.53
2022-08-07T07:16:27.414Z,99930.78
2022-08-07T07:19:04.128Z,99914.34
2022-08-07T07:22:05.491Z,99918.91
2022-08-07T07:24:27.963Z,99920.97
2022-08-07T07:26:56.376Z,99918.75
2022-08-07T07:29:56.342Z,99916.53
2022-08-07T07:32:14.493Z,99926.56
2022-08-07T07:34:45.928Z,99913.25
2022-08-07T07:37:44.426Z,99913.16
2022-08-07T07:40:10.227Z,99919.63
2022-08-07T07:42:51.048Z,99920.59
2022-08-07T07:45:19.767Z,99908.28
2022-08-07T07:48:07.760Z,99907.28
2022-08-07T07:50:39.279Z,99910.47
2022-08-07T07:53:20.429Z,99908.72
2022-08-07T07:56:00.961Z,99914.47
2022-08-07T07:58:40.577Z,99914.16
2022-08-07T08:02:01.571Z,99905.81
2022-08-07T08:04:10.991Z,99902.72
2022-08-07T08:06:40.757Z,99897.19
2022-08-07T08:09:20.191Z,99907.06
2022-08-07T08:12:02.865Z,99915.91
2022-08-07T08:14:34.341Z,99912.00
2022-08-07T08:18:36.951Z,99908.28
2022-08-07T08:20:19.750Z,99917.41
2022-08-07T08:23:00.389Z,99909.03
2022-08-07T08:25:50.295Z,99902.59
2022-08-07T08:28:23.936Z,99909.78
2022-08-07T08:31:07.912Z,99913.91
2022-08-07T08:33:49.084Z,99898.28
2022-08-07T08:36:16.694Z,99905.59
2022-08-07T08:38:44.847Z,99899.91
2022-08-07T08:41:17.738Z,99901.78
2022-08-07T08:43:58.626Z,99915.19
2022-08-07T08:46:34.258Z,99917.06
2022-08-07T08:49:46.544Z,99907.78
2022-08-07T08:52:36.036Z,99906.78
2022-08-07T08:55:21.176Z,99909.06
2022-08-07T08:58:20.269Z,99913.84
2022-08-07T09:00:53.357Z,99913.50
2022-08-07T09:03:47.388Z,99903.66
2022-08-07T09:06:40.389Z,99911.69
2022-08-07T09:09:23.712Z,99914.75
2022-08-07T09:12:31.069Z,99903.88
2022-08-07T09:16:23.066Z,99909.50
2022-08-07T09:18:32.944Z,99909.69
2022-08-07T09:21:58.212Z,99908.75
2022-08-07T09:24:31.902Z,99907.91
2022-08-07T09:27:24.434Z,99906.09
2022-08-07T09:30:08.253Z,99891.78
2022-08-07T09:32:54.472Z,99886.72
2022-08-07T09:36:02.739Z,99895.16
2022-08-07T09:38:53.770Z,99888.56
2022-08-07T09:41:36.224Z,99899.81
2022-08-07T09:44:52.198Z,99885.94
2022-08-07T09:48:02.446Z,99893.34
2022-08-07T09:50:42.027Z,99888.00
2022-08-07T09:53:12.717Z,99883.19
2022-08-07T09:56:19.681Z,99891.22
2022-08-07T09:59:28.147Z,99879.00
2022-08-07T10:02:24.105Z,99878.53
2022-08-07T10:05:58.067Z,99866.28
2022-08-07T10:08:49.578Z,99866.25
2022-08-07T10:12:02.432Z,99877.50
2022-08-07T10:14:55.508Z,99866.34
2022-08-07T10:18:00.770Z,99864.19
2022-08-07T10:21:20.000Z,99857.00
2022-08-07T10:24:28.779Z,99859.97
2022-08-07T10:27:12.209Z,99854.03
2022-08-07T10:30:06.615Z,99851.19
2022-08-07T10:32:52.748Z,99847.97
2022-08-07T10:35:55.229Z,99834.25
2022-08-07T10:38:49.523Z,99839.63
2022-08-07T10:41:52.247Z,99834.91
2022-08-07T10:44:45.137Z,99833.97
2022-08-07T10:47:52.573Z,99834.91
2022-08-07T10:50:25.704Z,99823.47
2022-08-07T10:52:59.898Z,99825.91
2022-08-07T10:56:20.907Z,99815.22
2022-08-07T10:59:21.685Z,99818.78
2022-08-07T11:02:33.498Z,99817.41
2022-08-07T11:05:19.028Z,99813.41
2022-08-07T11:08:08.509Z,99804.72
2022-08-07T11:10:57.928Z,99812.19
2022-08-07T11:14:42.632Z,99799.03
2022-08-07T11:16:30.497Z,99804.97
2022-08-07T11:19:21.759Z,99795.13
2022-08-07T11:22:27.346Z,99795.44
2022-08-07T11:25:23.244Z,99793.03
2022-08-07T11:28:15.501Z,99792.19
2022-08-07T11:31:22.186Z,99791.44
2022-08-07T11:34:00.452Z,99784.97
2022-08-07T11:36:49.664Z,99789.63
2022-08-07T11:39:59.285Z,99786.34
2022-08-07T11:42:39.372Z,99790.72
2022-08-07T11:45:35.843Z,99786.25
2022-08-07T11:48:32.101Z,99778.28
2022-08-07T11:51:41.818Z,99770.72
2022-08-07T11:54:54.556Z,99764.03
2022-08-07T11:58:00.748Z,99763.97
2022-08-07T12:00:20.237Z,99759.53
2022-08-07T12:03:41.538Z,99755.66
2022-08-07T12:06:39.200Z,99757.00
2022-08-07T12:09:07.491Z,99746.38
2022-08-07T12:11:43.399Z,99746.53
2022-08-07T12:14:30.139Z,99746.06
2022-08-07T12:17:19.873Z,99740.34
2022-08-07T12:20:02.567Z,99736.09
2022-08-07T12:22:58.356Z,99746.50
2022-08-07T12:26:02.999Z,99746.22
2022-08-07T12:28:53.349Z,99736.75
2022-08-07T12:31:52.674Z,99740.03
2022-08-07T12:34:36.304Z,99737.34
2022-08-07T12:37:08.466Z,99740.56
2022-08-07T12:39:51.650Z,99733.25
2022-08-07T12:42:27.662Z,99731.06
2022-08-07T12:44:56.945Z,99729.91
2022-08-07T12:47:37.441Z,99728.66
2022-08-07T12:50:34.027Z,99721.84
2022-08-07T12:53:18.551Z,99723.78
2022-08-07T12:56:04.294Z,99727.78
2022-08-07T12:58:42.971Z,99726.94
2022-08-07T13:01:28.009Z,99720.28
2022-08-07T13:04:34.128Z,99726.78
2022-08-07T13:07:09.385Z,99715.28
2022-08-07T13:10:37.308Z,99725.50
2022-08-07T13:13:10.973Z,99716.66
2022-08-07T13:15:59.802Z,99721.25
2022-08-07T13:19:04.231Z,99716.31
2022-08-07T13:21:58.962Z,99714.34
2022-08-07T13:24:37.177Z,99717.69
2022-08-07T13:27:14.843Z,99699.78
2022-08-07T13:29:53.654Z,99700.34
2022-08-07T13:32:37.513Z,99702.50
2022-08-07T13:35:08.765Z,99702.09
2022-08-07T13:37:49.668Z,99705.03
2022-08-07T13:40:42.837Z,99697.13
2022-08-07T13:43:15.379Z,99691.22
2022-08-07T13:46:12.830Z,99681.75
2022-08-07T13:48:38.759Z,99673.09
2022-08-07T13:51:28.232Z,99663.06
2022-08-07T13:54:01.634Z,99665.47
2022-08-07T13:56:35.376Z,99657.88
2022-08-07T13:59:12.827Z,99655.34
2022-08-07T14:02:03.520Z,99656.09
2022-08-07T14:04:36.097Z,99664.00
2022-08-07T14:07:09.651Z,99659.47
2022-08-07T14:10:03.043Z,99657.47
2022-08-07T14:12:54.783Z,99659.38
2022-08-07T14:15:37.464Z,99651.53
2022-08-07T14:18:29.277Z,99664.31
2022-08-07T14:21:21.197Z,99648.56
2022-08-07T14:24:03.745Z,99650.75
2022-08-07T14:26:50.397Z,99645.88
2022-08-07T14:30:07.313Z,99641.84
2022-08-07T14:32:15.138Z,99639.47
2022-08-07T14:34:46.605Z,99639.84
2022-08-07T14:37:16.976Z,99633.03
2022-08-07T14:40:15.985Z,99638.41
2022-08-07T14:42:33.862Z,99628.25
2022-08-07T14:47:53.035Z,99622.66
2022-08-07T14:50:46.101Z,99624.00
2022-08-07T14:53:13.777Z,99618.59
2022-08-07T14:58:34.973Z,99617.56
2022-08-07T15:01:22.673Z,99625.50
2022-08-07T15:03:52.588Z,99618.59
2022-08-07T15:06:27.917Z,99621.81
2022-08-07T15:08:56.065Z,99616.19
2022-08-07T15:11:52.813Z,99622.06
2022-08-07T15:14:17.340Z,99615.47
2022-08-07T15:17:00.823Z,99619.06
2022-08-07T15:20:30.196Z,99616.19
2022-08-07T15:22:23.182Z,99611.53
2022-08-07T15:28:30.847Z,99599.84
2022-08-07T15:31:05.005Z,99604.50
2022-08-07T15:33:33.823Z,99604.78
2022-08-07T15:38:59.336Z,99604.41
2022-08-07T15:42:42.420Z,99619.00
2022-08-07T15:44:19.307Z,99607.03
2022-08-07T15:46:52.600Z,99614.50
2022-08-07T15:50:03.841Z,99609.50
2022-08-07T15:52:20.890Z,99612.34
2022-08-07T15:54:48.879Z,99618.13
2022-08-07T15:57:39.267Z,99625.97
2022-08-07T16:00:08.763Z,99619.38
2022-08-07T16:02:56.126Z,99611.00
2022-08-07T16:05:31.224Z,99612.28
2022-08-07T16:08:32.438Z,99610.88
2022-08-07T16:11:00.062Z,99615.25
2022-08-07T16:13:59.248Z,99606.84
2022-08-07T16:16:48.965Z,99622.66
2022-08-07T16:19:42.183Z,99617.47
2022-08-07T16:22:37.733Z,99619.47
2022-08-07T16:25:52.382Z,99618.09
2022-08-07T16:30:06.767Z,99614.00
2022-08-07T16:31:51.817Z,99608.22
2022-08-07T16:34:48.172Z,99616.47
2022-08-07T16:38:06.924Z,99611.34
2022-08-07T16:40:28.755Z,99617.63
2022-08-07T16:44:05.759Z,99608.03
2022-08-07T16:47:07.646Z,99599.22
2022-08-07T16:50:27.149Z,99603.38
2022-08-07T16:54:01.357Z,99609.91
2022-08-07T16:56:21.017Z,99628.28
2022-08-07T16:59:17.414Z,99629.47
2022-08-07T17:02:52.249Z,99627.81
2022-08-07T17:06:19.134Z,99638.59
2022-08-07T17:09:10.497Z,99646.06
2022-08-07T17:12:01.378Z,99648.88
2022-08-07T17:14:42.635Z,99652.44
2022-08-07T17:17:23.909Z,99664.91
2022-08-07T17:20:03.061Z,99667.53
2022-08-07T17:22:49.063Z,99675.50
2022-08-07T17:25:47.664Z,99676.94
2022-08-07T17:28:14.518Z,99677.53
2022-08-07T17:30:59.690Z,99684.19
2022-08-07T17:34:08.747Z,99683.22
2022-08-07T17:36:25.990Z,99683.34
2022-08-07T17:39:02.247Z,99685.31
2022-08-07T17:42:01.910Z,99690.50
2022-08-07T17:44:50.016Z,99683.13
2022-08-07T17:47:41.825Z,99671.59
2022-08-07T17:50:19.303Z,99677.16
2022-08-07T17:52:55.400Z,99683.47
2022-08-07T17:56:06.290Z,99688.44
2022-08-07T17:58:46.173Z,99689.28
2022-08-07T18:01:21.949Z,99702.59
2022-08-07T18:04:16.628Z,99699.38
2022-08-07T18:07:20.912Z,99702.91
2022-08-07T18:10:06.907Z,99703.22
2022-08-07T18:13:09.889Z,99706.22
2022-08-07T18:16:05.007Z,99713.28
2022-08-07T18:21:01.246Z,99721.44
2022-08-07T18:21:53.593Z,99724.16
2022-08-07T18:24:37.609Z,99719.25
2022-08-07T18:27:17.500Z,99721.72
2022-08-07T18:30:06.081Z,99718.72
2022-08-07T18:32:51.765Z,99713.56
2022-08-07T18:35:52.101Z,99716.53
2022-08-07T18:38:54.815Z,99710.84
2022-08-07T18:41:47.205Z,99714.38
2022-08-07T18:45:39.982Z,99717.09
2022-08-07T18:47:45.015Z,99722.25
2022-08-07T18:50:40.917Z,99724.41
2022-08-07T18:53:40.111Z,99733.09
2022-08-07T18:56:14.751Z,99734.19
2022-08-07T18:58:44.522Z,99744.25
2022-08-07T19:02:18.215Z,99742.31
2022-08-07T19:04:19.660Z,99743.59
2022-08-07T19:07:02.154Z,99734.69
2022-08-07T19:09:58.946Z,99736.31
2022-08-07T19:12:57.971Z,99751.22
2022-08-07T19:17:04.109Z,99762.63
2022-08-07T19:19:46.868Z,99767.75
2022-08-07T19:22:30.371Z,99761.50
2022-08-07T19:24:58.534Z,99771.28
2022-08-07T19:28:58.034Z,99771.28
2022-08-07T19:31:04.540Z,99770.44
2022-08-07T19:33:13.402Z,99770.19
2022-08-07T19:35:53.328Z,99773.97
2022-08-07T19:38:21.657Z,99775.88
2022-08-07T19:40:51.509Z,99767.72
2022-08-07T19:43:43.661Z,99771.53
2022-08-07T19:46:12.259Z,99778.06
2022-08-07T19:48:42.225Z,99770.19
2022-08-07T19:51:20.614Z,99769.91
2022-08-07T19:54:33.747Z,99768.56
2022-08-07T19:57:52.164Z,99771.28
2022-08-07T19:59:40.715Z,99769.09
2022-08-07T20:02:19.790Z,99768.81
2022-08-07T20:04:50.241Z,99765.81
2022-08-07T20:07:46.381Z,99768.25
2022-08-07T20:10:35.275Z,99761.72
2022-08-07T20:13:06.426Z,99756.03
2022-08-07T20:15:43.626Z,99760.38
2022-08-07T20:18:14.672Z,99765.22
2022-08-07T20:20:46.982Z,99770.38
2022-08-07T20:23:32.949Z,99769.28
2022-08-07T20:26:09.992Z,99763.56
2022-08-07T20:28:39.116Z,99762.75
2022-08-07T20:31:21.663Z,99767.38
2022-08-07T20:33:56.787Z,99761.63
2022-08-07T20:36:27.655Z,99763.00
2022-08-07T20:39:00.902Z,99769.50
2022-08-07T20:41:42.702Z,99772.22
2022-08-07T20:44:13.078Z,99770.56
2022-08-07T20:46:44.117Z,99776.28
2022-08-07T20:50:01.030Z,99770.66
2022-08-07T20:52:06.652Z,99767.34
2022-08-07T20:54:41.718Z,99764.88
2022-08-07T20:57:25.618Z,99770.28
2022-08-07T21:00:06.669Z,99770.53
2022-08-07T21:02:58.175Z,99774.66
2022-08-07T21:05:50.535Z,99781.97
2022-08-07T21:08:36.469Z,99785.19
2022-08-07T21:11:14.242Z,99777.34
2022-08-07T21:14:16.495Z,99775.41
2022-08-07T21:16:46.727Z,99774.84
2022-08-07T21:19:32.046Z,99771.03
2022-08-07T21:22:19.023Z,99779.16
2022-08-07T21:24:47.959Z,99781.88
2022-08-07T21:27:25.644Z,99781.41
2022-08-07T21:30:10.127Z,99774.06
2022-08-07T21:33:23.207Z,99778.34
2022-08-07T21:36:04.778Z,99778.06
2022-08-07T21:38:49.957Z,99787.28
2022-08-07T21:41:51.978Z,99782.13
2022-08-07T21:44:44.887Z,99790.50
2022-08-07T21:47:31.853Z,99785.09
2022-08-07T21:50:22.545Z,99790.75
2022-08-07T21:52:58.322Z,99787.78
2022-08-07T21:55:30.368Z,99779.63
2022-08-07T21:58:30.181Z,99782.09
2022-08-07T22:01:01.876Z,99785.31
2022-08-07T22:03:42.111Z,99775.00
2022-08-07T22:06:30.457Z,99785.59
2022-08-07T22:09:10.953Z,99783.69
2022-08-07T22:12:04.890Z,99777.69
2022-08-07T22:14:36.128Z,99775.22
2022-08-07T22:17:05.927Z,99774.09
2022-08-07T22:20:22.811Z,99778.69
2022-08-07T22:22:57.346Z,99775.16
2022-08-07T22:25:39.947Z,99769.75
2022-08-07T22:28:31.008Z,99771.34
2022-08-07T22:31:45.433Z,99772.94
2022-08-07T22:34:13.024Z,99767.50
2022-08-07T22:36:40.286Z,99770.78
2022-08-07T22:39:53.096Z,99773.69
2022-08-07T22:42:25.904Z,99769.34
2022-08-07T22:44:58.030Z,99765.50
2022-08-07T22:47:35.086Z,99776.31
2022-08-07T22:50:20.513Z,99778.41
2022-08-07T22:53:02.839Z,99771.63
2022-08-07T22:55:48.353Z,99771.88
2022-08-07T22:58:28.087Z,99768.88
2022-08-07T23:01:07.688Z,99764.25
2022-08-07T23:04:05.874Z,99763.69
2022-08-07T23:06:51.699Z,99767.97
2022-08-07T23:10:03.488Z,99764.66
2022-08-07T23:13:06.897Z,99754.31
2022-08-07T23:16:06.245Z,99763.50
2022-08-07T23:19:14.220Z,99758.34
2022-08-07T23:21:51.341Z,99748.50
2022-08-07T23:24:45.383Z,99753.63
2022-08-07T23:27:33.959Z,99758.38
2022-08-07T23:30:38.838Z,99756.66
2022-08-07T23:34:33.461Z,99760.88
2022-08-07T23:36:23.003Z,99772.19
2022-08-07T23:38:58.691Z,99770.75
2022-08-07T23:41:47.760Z,99761.78
2022-08-07T23:44:52.946Z,99759.28
2022-08-07T23:47:30.808Z,99757.50
2022-08-07T23:50:33.471Z,99756.91
2022-08-07T23:53:51.252Z,99757.91
2022-08-07T23:56:41.738Z,99759.13
